createdAt,value
2019-04-10T00:02:07.149Z,10.87
2019-04-10T00:04:36.721Z,10.93
2019-04-10T00:07:14.645Z,10.94
2019-04-10T00:09:39.224Z,10.95
2019-04-10T00:12:08.142Z,10.93
2019-04-10T00:14:36.796Z,10.83
2019-04-10T00:17:05.509Z,10.78
2019-04-10T00:19:35.751Z,10.82
2019-04-10T00:22:04.528Z,10.83
2019-04-10T00:24:33.167Z,10.85
2019-04-10T00:27:02.131Z,10.83
2019-04-10T00:29:32.018Z,10.89
2019-04-10T00:32:02.134Z,10.79
2019-04-10T00:34:31.833Z,10.87
2019-04-10T00:37:01.786Z,10.89
2019-04-10T00:39:30.694Z,10.92
2019-04-10T00:41:59.272Z,10.83
2019-04-10T00:44:27.965Z,10.81
2019-04-10T00:46:56.976Z,10.89
2019-04-10T00:49:26.041Z,10.91
2019-04-10T00:51:55.573Z,10.88
2019-04-10T00:54:24.253Z,10.88
2019-04-10T00:56:52.881Z,10.86
2019-04-10T00:59:21.588Z,10.86
2019-04-10T01:01:50.232Z,10.85
2019-04-10T01:04:18.885Z,10.82
2019-04-10T01:06:48.406Z,10.79
2019-04-10T01:09:17.393Z,10.83
2019-04-10T01:11:46.043Z,10.82
2019-04-10T01:14:15.788Z,10.83
2019-04-10T01:16:44.506Z,10.83
2019-04-10T01:19:13.140Z,10.81
2019-04-10T01:21:42.241Z,10.83
2019-04-10T01:24:11.152Z,10.71
2019-04-10T01:26:39.906Z,10.69
2019-04-10T01:29:09.278Z,10.71
2019-04-10T01:31:37.970Z,10.74
2019-04-10T01:34:07.449Z,10.66
2019-04-10T01:36:37.286Z,10.65
2019-04-10T01:39:08.916Z,10.71
2019-04-10T01:41:37.555Z,10.74
2019-04-10T01:44:06.336Z,10.72
2019-04-10T01:46:36.085Z,10.66
2019-04-10T01:49:05.233Z,10.75
2019-04-10T01:51:35.160Z,10.62
2019-04-10T01:54:04.084Z,10.50
2019-04-10T01:56:35.086Z,10.46
2019-04-10T01:59:03.572Z,10.43
2019-04-10T02:01:37.300Z,10.36
2019-04-10T02:04:06.734Z,10.45
2019-04-10T02:06:35.838Z,10.45
2019-04-10T02:09:07.692Z,10.35
2019-04-10T02:11:36.418Z,10.44
2019-04-10T02:14:05.726Z,10.38
2019-04-10T02:16:34.816Z,10.37
2019-04-10T02:19:03.906Z,10.38
2019-04-10T02:21:33.953Z,10.38
2019-04-10T02:24:02.949Z,10.45
2019-04-10T02:26:31.780Z,10.40
2019-04-10T02:29:01.632Z,10.37
2019-04-10T02:31:31.919Z,10.37
2019-04-10T02:34:01.574Z,10.43
2019-04-10T02:36:31.577Z,10.32
2019-04-10T02:39:12.204Z,10.27
2019-04-10T02:41:32.396Z,10.24
2019-04-10T02:44:02.921Z,10.17
2019-04-10T02:46:33.133Z,10.23
2019-04-10T02:49:05.966Z,10.14
2019-04-10T02:51:35.272Z,10.14
2019-04-10T02:54:05.254Z,10.23
2019-04-10T02:56:34.422Z,10.19
2019-04-10T02:59:04.851Z,10.14
2019-04-10T03:01:33.864Z,10.09
2019-04-10T03:04:03.428Z,10.11
2019-04-10T03:06:33.586Z,10.13
2019-04-10T03:09:18.976Z,10.13
2019-04-10T03:11:33.357Z,10.06
2019-04-10T03:14:04.791Z,9.98
2019-04-10T03:16:33.489Z,9.87
2019-04-10T03:19:03.239Z,9.83
2019-04-10T03:21:32.004Z,9.78
2019-04-10T03:29:54.407Z,9.82
2019-04-10T03:35:52.589Z,9.74
2019-04-10T03:39:18.526Z,9.70
2019-04-10T03:45:57.630Z,9.74
2019-04-10T03:48:34.760Z,9.75
2019-04-10T03:51:20.680Z,9.75
2019-04-10T03:54:24.517Z,9.65
2019-04-10T04:03:02.558Z,9.66
2019-04-10T04:05:31.228Z,9.58
2019-04-10T04:08:04.047Z,9.64
2019-04-10T04:10:32.938Z,9.65
2019-04-10T04:13:01.659Z,9.68
2019-04-10T04:15:30.413Z,9.70
2019-04-10T04:18:00.259Z,9.68
2019-04-10T04:20:29.068Z,9.62
2019-04-10T04:22:57.809Z,9.62
2019-04-10T04:25:29.111Z,9.62
2019-04-10T04:27:58.334Z,9.60
2019-04-10T04:30:27.460Z,9.58
2019-04-10T04:33:06.589Z,9.61
2019-04-10T04:35:38.746Z,9.53
2019-04-10T04:38:09.562Z,9.50
2019-04-10T04:40:38.828Z,9.45
2019-04-10T04:43:07.910Z,9.39
2019-04-10T04:45:37.563Z,9.45
2019-04-10T04:48:07.656Z,9.43
2019-04-10T04:50:36.500Z,9.36
2019-04-10T04:53:05.288Z,9.40
2019-04-10T04:55:35.190Z,9.43
2019-04-10T04:58:04.155Z,9.32
2019-04-10T05:00:33.999Z,9.32
2019-04-10T05:03:03.777Z,9.23
2019-04-10T05:05:33.598Z,9.30
2019-04-10T05:08:04.344Z,9.29
2019-04-10T05:10:33.547Z,9.29
2019-04-10T05:13:02.815Z,9.37
2019-04-10T05:15:33.677Z,9.35
2019-04-10T05:18:02.399Z,9.28
2019-04-10T05:20:41.273Z,9.30
2019-04-10T05:23:04.107Z,9.34
2019-04-10T05:25:34.357Z,9.26
2019-04-10T05:28:03.629Z,9.23
2019-04-10T05:30:33.557Z,9.11
2019-04-10T05:33:02.243Z,9.13
2019-04-10T05:35:31.956Z,9.16
2019-04-10T05:38:00.626Z,9.27
2019-04-10T05:40:30.152Z,9.19
2019-04-10T05:42:59.581Z,9.15
2019-04-10T05:45:28.357Z,9.12
2019-04-10T05:47:57.043Z,9.17
2019-04-10T05:50:25.800Z,9.07
2019-04-10T05:52:54.423Z,9.13
2019-04-10T05:55:24.620Z,9.03
2019-04-10T05:57:53.692Z,9.10
2019-04-10T06:00:23.117Z,9.12
2019-04-10T06:02:56.368Z,9.17
2019-04-10T06:05:25.143Z,9.15
2019-04-10T06:07:53.970Z,9.15
2019-04-10T06:10:22.651Z,9.10
2019-04-10T06:12:51.285Z,9.08
2019-04-10T06:15:21.091Z,9.12
2019-04-10T06:17:50.952Z,9.07
2019-04-10T06:20:20.819Z,9.03
2019-04-10T06:22:50.755Z,9.05
2019-04-10T06:25:22.217Z,9.08
2019-04-10T06:27:50.589Z,9.05
2019-04-10T06:30:21.763Z,9.03
2019-04-10T06:32:51.526Z,9.00
2019-04-10T06:35:20.341Z,9.02
2019-04-10T06:37:49.038Z,9.04
2019-04-10T06:40:21.061Z,9.03
2019-04-10T06:42:52.073Z,8.93
2019-04-10T06:45:19.741Z,8.95
2019-04-10T06:47:48.739Z,9.09
2019-04-10T06:50:17.417Z,9.13
2019-04-10T06:52:47.075Z,9.08
2019-04-10T06:55:16.013Z,9.06
2019-04-10T06:57:50.952Z,9.07
2019-04-10T07:00:18.481Z,8.98
2019-04-10T07:02:47.313Z,9.00
2019-04-10T07:05:16.504Z,8.99
2019-04-10T07:08:01.820Z,8.94
2019-04-10T07:10:30.936Z,8.97
2019-04-10T07:12:55.387Z,8.95
2019-04-10T07:15:25.525Z,9.01
2019-04-10T07:17:55.472Z,9.02
2019-04-10T07:20:26.142Z,9.05
2019-04-10T07:22:55.426Z,8.98
2019-04-10T07:25:25.736Z,8.95
2019-04-10T07:27:54.567Z,8.99
2019-04-10T07:30:26.045Z,9.04
2019-04-10T07:32:55.100Z,9.06
2019-04-10T07:35:24.092Z,9.10
2019-04-10T07:37:56.036Z,9.22
2019-04-10T07:40:23.297Z,9.23
2019-04-10T07:42:52.524Z,9.24
2019-04-10T07:45:28.614Z,9.37
2019-04-10T07:47:57.414Z,9.40
2019-04-10T07:50:26.204Z,9.50
2019-04-10T07:52:54.840Z,9.66
2019-04-10T07:55:25.695Z,9.65
2019-04-10T07:57:55.218Z,9.54
2019-04-10T08:00:25.164Z,9.66
2019-04-10T08:02:55.330Z,9.63
2019-04-10T08:05:25.050Z,9.71
2019-04-10T08:07:55.950Z,9.86
2019-04-10T08:10:24.484Z,9.89
2019-04-10T08:12:54.292Z,10.07
2019-04-10T08:15:23.216Z,10.16
2019-04-10T08:17:51.943Z,10.19
2019-04-10T08:20:21.868Z,10.21
2019-04-10T08:22:54.039Z,10.28
2019-04-10T08:25:38.775Z,10.35
2019-04-10T08:28:11.395Z,10.44
2019-04-10T08:30:41.941Z,10.49
2019-04-10T08:33:11.984Z,10.51
2019-04-10T08:35:41.912Z,10.32
2019-04-10T08:38:13.139Z,10.36
2019-04-10T08:40:41.933Z,10.45
2019-04-10T08:43:11.725Z,10.54
2019-04-10T08:45:55.494Z,10.53
2019-04-10T08:48:27.078Z,10.69
2019-04-10T08:50:56.826Z,10.74
2019-04-10T08:53:27.120Z,10.68
2019-04-10T08:55:57.202Z,10.74
2019-04-10T08:58:28.390Z,10.79
2019-04-10T09:01:01.048Z,10.98
2019-04-10T09:03:30.939Z,11.07
2019-04-10T09:06:17.887Z,11.03
2019-04-10T09:08:47.512Z,11.12
2019-04-10T09:11:25.415Z,11.19
2019-04-10T09:13:46.757Z,11.31
2019-04-10T09:16:18.344Z,11.47
2019-04-10T09:18:47.598Z,11.40
2019-04-10T09:21:17.454Z,11.44
2019-04-10T09:23:52.440Z,11.45
2019-04-10T09:26:20.294Z,11.48
2019-04-10T09:28:50.767Z,11.47
2019-04-10T09:31:19.858Z,11.51
2019-04-10T09:33:49.530Z,11.53
2019-04-10T09:36:19.723Z,11.55
2019-04-10T09:38:48.495Z,11.59
2019-04-10T09:41:17.527Z,11.52
2019-04-10T09:43:47.617Z,11.49
2019-04-10T09:46:16.467Z,11.57
2019-04-10T09:48:48.441Z,11.57
2019-04-10T09:51:38.712Z,11.69
2019-04-10T09:54:07.883Z,11.76
2019-04-10T09:56:39.589Z,11.84
2019-04-10T09:59:08.444Z,11.67
2019-04-10T10:01:38.428Z,11.81
2019-04-10T10:04:10.077Z,11.89
2019-04-10T10:06:39.609Z,11.91
2019-04-10T10:09:08.977Z,11.93
2019-04-10T10:11:38.613Z,12.03
2019-04-10T10:14:07.638Z,12.11
2019-04-10T10:16:40.619Z,12.20
2019-04-10T10:19:09.985Z,12.32
2019-04-10T10:21:38.890Z,12.56
2019-04-10T10:24:08.603Z,12.65
2019-04-10T10:26:37.543Z,12.68
2019-04-10T10:29:06.448Z,12.64
2019-04-10T10:31:36.058Z,12.66
2019-04-10T10:34:05.948Z,12.80
2019-04-10T10:36:41.469Z,12.82
2019-04-10T10:39:17.185Z,12.84
2019-04-10T10:41:46.798Z,12.95
2019-04-10T10:44:15.732Z,13.07
2019-04-10T10:46:44.557Z,13.22
2019-04-10T10:49:20.843Z,13.32
2019-04-10T10:51:49.595Z,13.41
2019-04-10T10:54:18.913Z,13.46
2019-04-10T10:56:50.999Z,13.60
2019-04-10T10:59:20.371Z,13.67
2019-04-10T11:01:49.106Z,13.81
2019-04-10T11:04:21.268Z,13.94
2019-04-10T11:06:59.350Z,14.16
2019-04-10T11:09:23.917Z,14.21
2019-04-10T11:11:53.734Z,14.15
2019-04-10T11:14:25.272Z,14.08
2019-04-10T11:16:58.025Z,14.20
2019-04-10T11:19:27.139Z,14.22
2019-04-10T11:21:56.879Z,14.28
2019-04-10T11:24:47.139Z,14.36
2019-04-10T11:27:31.802Z,14.22
2019-04-10T11:30:05.488Z,14.32
2019-04-10T11:32:34.214Z,14.34
2019-04-10T11:35:03.574Z,14.29
2019-04-10T11:37:41.140Z,14.27
2019-04-10T11:40:05.115Z,14.33
2019-04-10T11:42:35.094Z,14.25
2019-04-10T11:45:06.306Z,14.23
2019-04-10T11:47:36.387Z,14.25
2019-04-10T11:50:09.186Z,14.35
2019-04-10T11:55:13.775Z,14.47
2019-04-10T11:57:37.534Z,14.42
2019-04-10T12:00:12.055Z,14.44
2019-04-10T12:02:39.438Z,14.42
2019-04-10T12:05:12.013Z,14.40
2019-04-10T12:08:17.877Z,14.42
2019-04-10T12:12:39.922Z,14.55
2019-04-10T12:15:10.106Z,14.49
2019-04-10T12:17:38.868Z,14.51
2019-04-10T12:20:08.966Z,14.52
2019-04-10T12:22:38.067Z,14.55
2019-04-10T12:25:07.066Z,14.51
2019-04-10T12:27:36.897Z,14.56
2019-04-10T12:30:07.626Z,14.58
2019-04-10T12:32:36.727Z,14.65
2019-04-10T12:35:06.750Z,14.72
2019-04-10T12:37:35.726Z,14.75
2019-04-10T12:40:05.528Z,14.73
2019-04-10T12:42:34.616Z,14.89
2019-04-10T12:45:04.656Z,14.90
2019-04-10T12:47:34.257Z,14.82
2019-04-10T12:50:03.781Z,14.84
2019-04-10T12:52:34.765Z,14.79
2019-04-10T12:55:03.962Z,14.93
2019-04-10T12:57:32.942Z,15.00
2019-04-10T13:00:04.638Z,15.10
2019-04-10T13:02:32.317Z,15.20
2019-04-10T13:05:01.026Z,15.18
2019-04-10T13:07:31.688Z,15.15
2019-04-10T13:10:00.513Z,15.16
2019-04-10T13:12:29.388Z,15.16
2019-04-10T13:14:59.147Z,15.06
2019-04-10T13:17:28.915Z,15.09
2019-04-10T13:19:57.733Z,15.12
2019-04-10T13:22:26.559Z,15.07
2019-04-10T13:24:55.263Z,15.06
2019-04-10T13:27:23.977Z,15.10
2019-04-10T13:29:52.725Z,15.08
2019-04-10T13:32:21.542Z,15.07
2019-04-10T13:34:51.278Z,15.08
2019-04-10T13:37:20.219Z,15.10
2019-04-10T13:39:49.035Z,14.97
2019-04-10T13:42:17.859Z,14.81
2019-04-10T13:44:46.793Z,14.84
2019-04-10T13:47:18.019Z,14.96
2019-04-10T13:49:48.436Z,15.03
2019-04-10T13:52:18.243Z,14.99
2019-04-10T13:54:47.187Z,15.00
2019-04-10T13:57:16.017Z,15.01
2019-04-10T13:59:47.413Z,15.07
2019-04-10T14:02:27.708Z,15.18
2019-04-10T14:04:57.450Z,15.23
2019-04-10T14:07:26.875Z,15.25
2019-04-10T14:09:56.558Z,15.08
2019-04-10T14:12:25.570Z,15.12
2019-04-10T14:14:55.162Z,15.20
2019-04-10T14:17:24.068Z,15.21
2019-04-10T14:19:54.032Z,15.09
2019-04-10T14:22:23.907Z,15.08
2019-04-10T14:24:53.622Z,15.16
2019-04-10T14:27:25.370Z,15.20
2019-04-10T14:29:54.594Z,15.27
2019-04-10T14:32:29.219Z,15.33
2019-04-10T14:34:58.825Z,15.30
2019-04-10T14:37:29.557Z,15.39
2019-04-10T14:39:58.532Z,15.42
2019-04-10T14:42:28.327Z,15.39
2019-04-10T14:44:57.265Z,15.27
2019-04-10T14:47:26.093Z,15.05
2019-04-10T14:49:55.438Z,15.02
2019-04-10T14:52:25.400Z,15.02
2019-04-10T14:54:56.492Z,14.99
2019-04-10T14:57:26.402Z,14.94
2019-04-10T14:59:56.068Z,14.84
2019-04-10T15:02:26.474Z,14.80
2019-04-10T15:04:55.421Z,14.87
2019-04-10T15:07:24.236Z,14.91
2019-04-10T15:09:52.982Z,14.93
2019-04-10T15:12:24.703Z,14.96
2019-04-10T15:14:54.129Z,15.09
2019-04-10T15:17:23.181Z,15.17
2019-04-10T15:19:54.263Z,15.25
2019-04-10T15:22:23.503Z,15.07
2019-04-10T15:24:52.381Z,14.97
2019-04-10T15:27:21.566Z,14.88
2019-04-10T15:29:50.500Z,14.77
2019-04-10T15:32:20.225Z,14.77
2019-04-10T15:34:49.191Z,14.75
2019-04-10T15:37:17.913Z,14.70
2019-04-10T15:39:46.693Z,14.72
2019-04-10T15:42:16.254Z,14.60
2019-04-10T15:44:46.040Z,14.53
2019-04-10T15:47:19.702Z,14.48
2019-04-10T15:49:45.541Z,14.46
2019-04-10T15:52:14.525Z,14.38
2019-04-10T15:54:43.463Z,14.31
2019-04-10T15:57:12.101Z,14.26
2019-04-10T15:59:40.774Z,14.30
2019-04-10T16:02:09.443Z,14.31
2019-04-10T16:04:38.166Z,14.36
2019-04-10T16:07:06.863Z,14.29
2019-04-10T16:09:46.382Z,14.26
2019-04-10T16:12:14.527Z,14.35
2019-04-10T16:14:44.317Z,14.22
2019-04-10T16:17:34.420Z,14.19
2019-04-10T16:20:20.330Z,14.17
2019-04-10T16:23:14.322Z,14.11
2019-04-10T16:25:46.798Z,14.04
2019-04-10T16:28:17.983Z,14.10
2019-04-10T16:30:46.762Z,14.13
2019-04-10T16:33:16.843Z,14.15
2019-04-10T16:35:46.225Z,14.14
2019-04-10T16:38:14.981Z,13.96
2019-04-10T16:40:43.890Z,13.84
2019-04-10T16:43:13.835Z,13.68
2019-04-10T16:45:42.700Z,13.72
2019-04-10T16:48:11.532Z,13.62
2019-04-10T16:50:40.289Z,13.55
2019-04-10T16:53:09.794Z,13.57
2019-04-10T16:55:38.814Z,13.53
2019-04-10T16:58:07.667Z,13.45
2019-04-10T17:00:37.578Z,13.46
2019-04-10T17:03:06.824Z,13.36
2019-04-10T17:05:35.530Z,13.34
2019-04-10T17:08:05.629Z,13.40
2019-04-10T17:10:34.586Z,13.31
2019-04-10T17:13:04.446Z,13.30
2019-04-10T17:15:34.264Z,13.19
2019-04-10T17:18:03.263Z,13.17
2019-04-10T17:20:32.895Z,13.16
2019-04-10T17:23:02.553Z,13.12
2019-04-10T17:25:31.264Z,13.09
2019-04-10T17:28:00.089Z,13.01
2019-04-10T17:30:29.545Z,12.95
2019-04-10T17:32:58.371Z,12.92
2019-04-10T17:35:27.604Z,12.87
2019-04-10T17:37:56.318Z,12.84
2019-04-10T17:40:33.577Z,12.85
2019-04-10T17:42:56.697Z,12.86
2019-04-10T17:45:27.512Z,12.75
2019-04-10T17:47:56.815Z,12.67
2019-04-10T17:50:27.863Z,12.61
2019-04-10T17:52:56.814Z,12.61
2019-04-10T17:55:25.571Z,12.61
2019-04-10T17:57:57.386Z,12.54
2019-04-10T18:00:31.637Z,12.47
2019-04-10T18:03:01.223Z,12.40
2019-04-10T18:05:30.868Z,12.31
2019-04-10T18:08:02.912Z,12.29
2019-04-10T18:10:52.543Z,12.23
2019-04-10T18:13:22.747Z,12.17
2019-04-10T18:15:54.091Z,12.09
2019-04-10T18:18:45.740Z,12.03
2019-04-10T18:21:22.446Z,12.02
2019-04-10T18:23:57.890Z,12.01
2019-04-10T18:26:37.782Z,11.96
2019-04-10T18:29:11.896Z,11.91
2019-04-10T18:31:45.813Z,11.80
2019-04-10T18:34:19.334Z,11.81
2019-04-10T18:36:57.072Z,11.80
2019-04-10T18:39:43.598Z,11.68
2019-04-10T18:42:24.349Z,11.52
2019-04-10T18:45:03.741Z,11.54
2019-04-10T18:47:38.818Z,11.46
2019-04-10T18:50:07.897Z,11.46
2019-04-10T18:52:37.805Z,11.38
2019-04-10T18:55:12.535Z,11.39
2019-04-10T18:57:45.269Z,11.37
2019-04-10T19:00:34.455Z,11.32
2019-04-10T19:03:21.439Z,11.23
2019-04-10T19:05:54.754Z,11.19
2019-04-10T19:08:24.670Z,11.07
2019-04-10T19:11:10.576Z,11.06
2019-04-10T19:13:33.360Z,10.93
2019-04-10T19:16:04.116Z,10.87
2019-04-10T19:18:37.526Z,10.90
2019-04-10T19:21:11.391Z,10.89
2019-04-10T19:23:42.100Z,10.80
2019-04-10T19:26:15.581Z,10.84
2019-04-10T19:28:48.783Z,10.71
2019-04-10T19:31:24.250Z,10.66
2019-04-10T19:34:16.979Z,10.59
2019-04-10T19:36:48.743Z,10.61
2019-04-10T19:39:20.227Z,10.59
2019-04-10T19:41:53.858Z,10.49
2019-04-10T19:44:24.784Z,10.47
2019-04-10T19:46:59.851Z,10.42
2019-04-10T19:49:35.014Z,10.42
2019-04-10T19:52:28.541Z,10.34
2019-04-10T19:55:05.109Z,10.32
2019-04-10T19:57:41.514Z,10.28
2019-04-10T20:00:14.988Z,10.19
2019-04-10T20:02:44.456Z,10.18
2019-04-10T20:05:47.870Z,10.16
2019-04-10T20:08:20.275Z,10.13
2019-04-10T20:10:52.465Z,10.12
2019-04-10T20:13:26.949Z,10.11
2019-04-10T20:15:56.505Z,10.02
2019-04-10T20:18:26.595Z,10.00
2019-04-10T20:20:58.127Z,9.89
2019-04-10T20:23:29.987Z,9.93
2019-04-10T20:25:58.976Z,9.94
2019-04-10T20:28:28.889Z,9.92
2019-04-10T20:30:59.502Z,9.84
2019-04-10T20:33:32.632Z,9.82
2019-04-10T20:36:06.819Z,9.72
2019-04-10T20:38:37.334Z,9.63
2019-04-10T20:41:10.682Z,9.71
2019-04-10T20:43:42.857Z,9.64
2019-04-10T20:46:14.382Z,9.62
2019-04-10T20:48:44.638Z,9.60
2019-04-10T20:51:17.249Z,9.59
2019-04-10T20:53:50.502Z,9.54
2019-04-10T20:56:22.282Z,9.52
2019-04-10T20:58:57.510Z,9.43
2019-04-10T21:01:46.994Z,9.47
2019-04-10T21:04:18.051Z,9.40
2019-04-10T21:06:48.177Z,9.41
2019-04-10T21:09:43.815Z,9.33
2019-04-10T21:12:18.105Z,9.36
2019-04-10T21:14:45.822Z,9.33
2019-04-10T21:17:14.574Z,9.22
2019-04-10T21:19:43.301Z,9.09
2019-04-10T21:22:11.910Z,9.01
2019-04-10T21:24:41.242Z,9.04
2019-04-10T21:27:11.199Z,9.08
2019-04-10T21:30:07.863Z,8.97
2019-04-10T21:32:58.460Z,9.01
2019-04-10T21:35:30.921Z,8.98
2019-04-10T21:37:59.628Z,8.85
2019-04-10T21:40:28.245Z,8.85
2019-04-10T21:42:58.095Z,8.89
2019-04-10T21:45:26.993Z,8.84
2019-04-10T21:47:55.742Z,8.78
2019-04-10T21:50:24.759Z,8.79
2019-04-10T21:52:53.542Z,8.79
2019-04-10T21:55:23.579Z,8.79
2019-04-10T21:57:52.396Z,8.83
2019-04-10T22:00:36.717Z,8.79
2019-04-10T22:03:05.573Z,8.72
2019-04-10T22:05:36.756Z,8.72
2019-04-10T22:08:27.483Z,8.71
2019-04-10T22:10:57.335Z,8.69
2019-04-10T22:13:26.206Z,8.75
2019-04-10T22:15:55.434Z,8.74
2019-04-10T22:18:25.289Z,8.72
2019-04-10T22:20:54.187Z,8.61
2019-04-10T22:23:22.828Z,8.64
2019-04-10T22:25:52.263Z,8.67
2019-04-10T22:28:21.145Z,8.68
2019-04-10T22:30:50.578Z,8.58
2019-04-10T22:33:20.240Z,8.63
2019-04-10T22:35:49.026Z,8.54
2019-04-10T22:38:17.745Z,8.45
2019-04-10T22:40:46.386Z,8.55
2019-04-10T22:43:15.922Z,8.43
2019-04-10T22:45:44.744Z,8.43
2019-04-10T22:48:14.608Z,8.41
2019-04-10T22:50:43.344Z,8.42
2019-04-10T22:53:12.972Z,8.27
2019-04-10T22:55:42.458Z,8.27
2019-04-10T22:58:11.118Z,8.29
2019-04-10T23:00:39.853Z,8.07
2019-04-10T23:03:08.476Z,8.23
2019-04-10T23:05:37.350Z,8.23
2019-04-10T23:08:06.015Z,8.27
2019-04-10T23:10:35.314Z,8.15
2019-04-10T23:13:05.584Z,8.15
2019-04-10T23:15:35.555Z,8.11
2019-04-10T23:18:05.483Z,8.04
2019-04-10T23:20:34.270Z,8.02
2019-04-10T23:23:03.158Z,7.95
2019-04-10T23:25:32.156Z,7.98
2019-04-10T23:28:01.094Z,8.01
2019-04-10T23:30:29.916Z,8.08
2019-04-10T23:32:59.614Z,7.95
2019-04-10T23:35:29.542Z,7.97
2019-04-10T23:37:59.379Z,7.89
2019-04-10T23:40:29.194Z,7.91
2019-04-10T23:43:07.732Z,7.78
2019-04-10T23:45:29.444Z,7.81
2019-04-10T23:47:58.410Z,7.79
2019-04-10T23:50:27.106Z,7.71
2019-04-10T23:52:56.245Z,7.69
2019-04-10T23:55:25.997Z,7.63
2019-04-10T23:57:55.912Z,7.66
